createdAt,value
2023-02-18T00:00:58.546Z,93.81
2023-02-18T00:03:26.349Z,92.95
2023-02-18T00:05:53.954Z,93.39
2023-02-18T00:08:21.964Z,93.63
2023-02-18T00:10:49.549Z,94.77
2023-02-18T00:13:17.192Z,95.51
2023-02-18T00:15:46.113Z,95.86
2023-02-18T00:18:13.665Z,95.50
2023-02-18T00:20:41.340Z,96.18
2023-02-18T00:23:08.891Z,96.86
2023-02-18T00:25:36.364Z,97.22
2023-02-18T00:28:03.890Z,96.97
2023-02-18T00:30:31.455Z,96.34
2023-02-18T00:33:01.327Z,96.47
2023-02-18T00:35:28.791Z,97.08
2023-02-18T00:37:56.346Z,97.23
2023-02-18T00:40:23.891Z,96.65
2023-02-18T00:42:51.388Z,96.32
2023-02-18T00:45:18.907Z,96.62
2023-02-18T00:47:46.408Z,96.98
2023-02-18T00:50:15.309Z,96.47
2023-02-18T00:52:42.805Z,96.13
2023-02-18T00:55:10.306Z,95.62
2023-02-18T00:57:37.896Z,96.27
2023-02-18T01:00:06.012Z,96.39
2023-02-18T01:02:33.576Z,95.28
2023-02-18T01:05:01.239Z,94.50
2023-02-18T01:07:30.137Z,94.46
2023-02-18T01:09:57.687Z,94.68
2023-02-18T01:12:25.203Z,94.25
2023-02-18T01:14:52.713Z,94.77
2023-02-18T01:17:20.568Z,95.70
2023-02-18T01:19:48.077Z,95.08
2023-02-18T01:22:15.591Z,94.80
2023-02-18T01:24:46.241Z,94.32
2023-02-18T01:27:14.264Z,94.24
2023-02-18T01:29:41.831Z,94.44
2023-02-18T01:32:09.532Z,94.29
2023-02-18T01:34:37.120Z,94.22
2023-02-18T01:37:04.595Z,94.40
2023-02-18T01:39:32.901Z,94.45
2023-02-18T01:42:01.759Z,94.23
2023-02-18T01:44:30.299Z,94.07
2023-02-18T01:46:57.870Z,93.78
2023-02-18T01:49:28.723Z,93.63
2023-02-18T01:51:59.249Z,92.99
2023-02-18T01:54:28.920Z,91.55
2023-02-18T01:56:58.782Z,90.44
2023-02-18T01:59:33.038Z,90.88
2023-02-18T02:02:00.689Z,89.76
2023-02-18T02:04:28.358Z,89.87
2023-02-18T02:06:55.880Z,90.32
2023-02-18T02:09:25.184Z,89.54
2023-02-18T02:12:14.958Z,89.20
2023-02-18T02:15:07.596Z,87.92
2023-02-18T02:17:40.577Z,88.31
2023-02-18T02:20:53.236Z,88.79
2023-02-18T02:23:55.438Z,88.69
2023-02-18T02:26:49.247Z,88.23
2023-02-18T02:29:46.362Z,88.91
2023-02-18T02:32:42.254Z,88.47
2023-02-18T02:35:11.632Z,88.07
2023-02-18T02:37:43.345Z,87.87
2023-02-18T02:40:19.281Z,87.39
2023-02-18T02:42:55.403Z,87.97
2023-02-18T02:45:30.426Z,87.90
2023-02-18T02:48:03.116Z,87.67
2023-02-18T02:50:38.809Z,87.51
2023-02-18T02:53:12.363Z,88.06
2023-02-18T02:55:39.905Z,87.71
2023-02-18T02:58:07.358Z,88.15
2023-02-18T03:00:44.670Z,87.51
2023-02-18T03:03:20.631Z,88.01
2023-02-18T03:06:00.486Z,88.02
2023-02-18T03:08:39.163Z,88.32
2023-02-18T03:11:08.348Z,88.49
2023-02-18T03:13:52.676Z,88.62
2023-02-18T03:16:26.860Z,88.53
2023-02-18T03:19:00.112Z,88.36
2023-02-18T03:21:31.365Z,88.72
2023-02-18T03:24:03.641Z,88.27
2023-02-18T03:26:32.710Z,88.45
2023-02-18T03:29:03.469Z,88.74
2023-02-18T03:31:32.745Z,88.66
2023-02-18T03:34:03.580Z,88.02
2023-02-18T03:36:34.041Z,88.32
2023-02-18T03:39:05.591Z,88.29
2023-02-18T03:41:33.564Z,88.20
2023-02-18T03:44:03.310Z,87.70
2023-02-18T03:46:31.624Z,87.49
2023-02-18T03:48:59.127Z,87.21
2023-02-18T03:51:26.690Z,87.33
2023-02-18T03:53:55.585Z,87.32
2023-02-18T03:56:23.269Z,87.39
2023-02-18T03:58:50.878Z,87.28
2023-02-18T04:01:18.429Z,88.03
2023-02-18T04:03:45.940Z,87.69
2023-02-18T04:06:13.831Z,88.06
2023-02-18T04:08:41.420Z,88.95
2023-02-18T04:11:10.248Z,88.76
2023-02-18T04:13:37.719Z,89.56
2023-02-18T04:16:06.293Z,88.75
2023-02-18T04:18:33.939Z,89.29
2023-02-18T04:21:01.412Z,88.55
2023-02-18T04:23:28.893Z,88.63
2023-02-18T04:25:56.630Z,88.75
2023-02-18T04:28:25.458Z,88.68
2023-02-18T04:30:52.917Z,87.45
2023-02-18T04:33:20.431Z,88.01
2023-02-18T04:35:47.919Z,87.55
2023-02-18T04:38:15.385Z,87.98
2023-02-18T04:40:42.866Z,87.81
2023-02-18T04:43:10.364Z,87.86
2023-02-18T04:45:39.222Z,87.61
2023-02-18T04:48:06.842Z,87.46
2023-02-18T04:50:34.409Z,88.53
2023-02-18T04:53:01.868Z,87.68
2023-02-18T04:55:29.380Z,89.17
2023-02-18T04:57:56.943Z,89.58
2023-02-18T05:00:30.536Z,89.68
2023-02-18T05:02:59.378Z,89.50
2023-02-18T05:05:26.883Z,90.21
2023-02-18T05:07:54.347Z,90.34
2023-02-18T05:10:21.992Z,91.08
2023-02-18T05:12:49.454Z,91.37
2023-02-18T05:15:17.128Z,92.23
2023-02-18T05:17:44.883Z,92.60
2023-02-18T05:20:14.306Z,93.28
2023-02-18T05:22:44.584Z,93.34
2023-02-18T05:25:12.069Z,93.53
2023-02-18T05:27:39.602Z,93.77
2023-02-18T05:30:08.305Z,92.92
2023-02-18T05:32:35.999Z,92.45
2023-02-18T05:35:03.505Z,92.48
2023-02-18T05:37:32.751Z,93.46
2023-02-18T05:40:00.236Z,92.99
2023-02-18T05:42:27.735Z,92.90
2023-02-18T05:44:55.207Z,93.28
2023-02-18T05:47:22.701Z,92.86
2023-02-18T05:49:50.810Z,92.91
2023-02-18T05:52:18.666Z,92.90
2023-02-18T05:54:47.425Z,92.80
2023-02-18T05:57:15.535Z,92.45
2023-02-18T05:59:43.181Z,92.07
2023-02-18T06:02:10.703Z,91.58
2023-02-18T06:04:38.214Z,92.31
2023-02-18T06:07:05.690Z,91.67
2023-02-18T06:09:33.193Z,91.14
2023-02-18T06:12:02.080Z,91.20
2023-02-18T06:14:29.557Z,90.44
2023-02-18T06:16:57.113Z,89.59
2023-02-18T06:19:24.654Z,89.73
2023-02-18T06:21:52.160Z,89.60
2023-02-18T06:24:19.638Z,87.75
2023-02-18T06:26:47.137Z,87.45
2023-02-18T06:29:16.116Z,86.62
2023-02-18T06:31:43.720Z,86.28
2023-02-18T06:34:11.229Z,85.77
2023-02-18T06:36:38.763Z,84.80
2023-02-18T06:39:07.227Z,85.11
2023-02-18T06:41:34.984Z,84.99
2023-02-18T06:44:02.541Z,85.33
2023-02-18T06:46:31.467Z,84.04
2023-02-18T06:48:58.936Z,83.15
2023-02-18T06:51:26.773Z,82.41
2023-02-18T06:53:54.210Z,82.79
2023-02-18T06:56:21.688Z,81.51
2023-02-18T06:58:49.307Z,81.97
2023-02-18T07:01:16.923Z,80.94
2023-02-18T07:03:46.887Z,80.24
2023-02-18T07:06:16.129Z,80.96
2023-02-18T07:08:43.604Z,79.93
2023-02-18T07:11:11.054Z,79.60
2023-02-18T07:13:38.540Z,79.00
2023-02-18T07:16:07.088Z,77.82
2023-02-18T07:18:34.922Z,77.40
2023-02-18T07:21:03.821Z,77.77
2023-02-18T07:23:31.574Z,77.90
2023-02-18T07:26:06.924Z,76.65
2023-02-18T07:28:34.588Z,75.85
2023-02-18T07:31:02.532Z,76.35
2023-02-18T07:33:30.192Z,76.09
2023-02-18T07:35:58.675Z,75.54
2023-02-18T07:38:28.646Z,75.53
2023-02-18T07:40:57.425Z,75.67
2023-02-18T07:43:24.933Z,74.41
2023-02-18T07:45:52.567Z,75.26
2023-02-18T07:48:20.132Z,75.35
2023-02-18T07:50:48.053Z,75.94
2023-02-18T07:53:17.237Z,74.89
2023-02-18T07:55:52.204Z,73.95
2023-02-18T07:58:20.706Z,74.44
2023-02-18T08:00:49.411Z,74.42
2023-02-18T08:03:17.745Z,75.05
2023-02-18T08:05:45.543Z,74.72
2023-02-18T08:08:14.318Z,75.05
2023-02-18T08:10:42.341Z,73.53
2023-02-18T08:13:11.721Z,73.70
2023-02-18T08:15:39.790Z,74.03
2023-02-18T08:18:07.509Z,74.16
2023-02-18T08:20:38.017Z,73.73
2023-02-18T08:23:06.107Z,74.90
2023-02-18T08:25:34.003Z,73.58
2023-02-18T08:28:01.603Z,72.73
2023-02-18T08:30:30.477Z,73.10
2023-02-18T08:32:58.121Z,72.16
2023-02-18T08:35:25.573Z,72.55
2023-02-18T08:37:54.169Z,71.68
2023-02-18T08:40:22.434Z,71.86
2023-02-18T08:42:49.962Z,71.54
2023-02-18T08:45:17.553Z,71.90
2023-02-18T08:48:17.200Z,71.76
2023-02-18T08:50:34.177Z,71.49
2023-02-18T08:53:03.376Z,71.92
2023-02-18T08:55:31.273Z,70.92
2023-02-18T08:57:58.785Z,71.27
2023-02-18T09:00:26.405Z,71.24
2023-02-18T09:02:55.215Z,70.22
2023-02-18T09:05:22.719Z,70.24
2023-02-18T09:07:50.179Z,70.40
2023-02-18T09:10:17.781Z,69.92
2023-02-18T09:12:45.301Z,69.69
2023-02-18T09:15:12.873Z,69.99
2023-02-18T09:17:40.453Z,69.46
2023-02-18T09:20:10.218Z,69.71
2023-02-18T09:22:37.697Z,69.48
2023-02-18T09:25:05.861Z,70.59
2023-02-18T09:27:33.434Z,70.53
2023-02-18T09:30:01.033Z,70.38
2023-02-18T09:32:34.726Z,70.18
2023-02-18T09:35:03.247Z,70.99
2023-02-18T09:37:34.179Z,70.40
2023-02-18T09:40:01.782Z,69.88
2023-02-18T09:42:32.414Z,70.49
2023-02-18T09:45:01.919Z,71.13
2023-02-18T09:47:32.974Z,70.46
2023-02-18T09:50:06.669Z,70.75
2023-02-18T09:52:38.261Z,70.06
2023-02-18T09:55:18.554Z,70.49
2023-02-18T09:57:50.170Z,70.38
2023-02-18T10:00:21.178Z,70.06
2023-02-18T10:02:56.015Z,71.04
2023-02-18T10:05:26.380Z,70.39
2023-02-18T10:08:00.398Z,70.05
2023-02-18T10:10:35.406Z,70.18
2023-02-18T10:13:04.076Z,69.82
2023-02-18T10:15:33.031Z,70.79
2023-02-18T10:18:00.816Z,70.81
2023-02-18T10:20:30.430Z,70.65
2023-02-18T10:23:01.463Z,70.54
2023-02-18T10:25:29.520Z,70.17
2023-02-18T10:27:58.532Z,69.74
2023-02-18T10:30:32.009Z,70.20
2023-02-18T10:33:17.661Z,70.22
2023-02-18T10:35:51.092Z,70.20
2023-02-18T10:38:25.889Z,70.41
2023-02-18T10:41:00.117Z,69.92
2023-02-18T10:43:33.412Z,70.21
2023-02-18T10:46:06.985Z,69.05
2023-02-18T10:48:53.436Z,70.55
2023-02-18T10:51:23.622Z,70.68
2023-02-18T10:53:53.591Z,70.55
2023-02-18T10:56:38.581Z,70.96
2023-02-18T10:59:11.740Z,70.09
2023-02-18T11:01:39.490Z,71.38
2023-02-18T11:04:12.712Z,70.71
2023-02-18T11:06:41.674Z,69.93
2023-02-18T11:09:25.836Z,70.90
2023-02-18T11:12:07.858Z,70.69
2023-02-18T11:14:43.947Z,70.58
2023-02-18T11:17:19.135Z,70.46
2023-02-18T11:19:53.880Z,70.34
2023-02-18T11:22:23.407Z,70.24
2023-02-18T11:24:56.514Z,70.18
2023-02-18T11:27:27.466Z,69.59
2023-02-18T11:29:57.513Z,69.17
2023-02-18T11:32:28.355Z,70.06
2023-02-18T11:34:55.910Z,69.90
2023-02-18T11:37:24.275Z,69.93
2023-02-18T11:39:53.694Z,69.41
2023-02-18T11:42:23.956Z,69.29
2023-02-18T11:44:53.881Z,69.12
2023-02-18T11:47:24.998Z,69.62
2023-02-18T11:50:05.976Z,69.12
2023-02-18T11:52:36.199Z,69.06
2023-02-18T11:55:06.954Z,69.27
2023-02-18T11:57:39.855Z,68.84
2023-02-18T12:00:17.435Z,68.67
2023-02-18T12:02:45.254Z,68.03
2023-02-18T12:05:15.380Z,68.24
2023-02-18T12:07:45.806Z,68.63
2023-02-18T12:10:15.949Z,69.35
2023-02-18T12:12:48.564Z,69.08
2023-02-18T12:15:19.195Z,68.62
2023-02-18T12:17:57.120Z,69.74
2023-02-18T12:21:07.609Z,68.66
2023-02-18T12:23:39.540Z,69.19
2023-02-18T12:26:18.773Z,69.04
2023-02-18T12:29:07.888Z,68.85
2023-02-18T12:31:47.617Z,69.43
2023-02-18T12:34:26.680Z,68.73
2023-02-18T12:37:02.636Z,68.49
2023-02-18T12:39:40.134Z,69.14
2023-02-18T12:42:20.397Z,68.71
2023-02-18T12:44:59.541Z,68.73
2023-02-18T12:47:46.330Z,68.81
2023-02-18T12:50:26.202Z,68.46
2023-02-18T12:53:06.725Z,69.25
2023-02-18T12:55:45.040Z,69.30
2023-02-18T12:58:23.518Z,69.68
2023-02-18T13:01:15.665Z,69.29
2023-02-18T13:04:01.811Z,70.99
2023-02-18T13:06:45.966Z,72.05
2023-02-18T13:09:19.977Z,72.08
2023-02-18T13:11:53.325Z,73.53
2023-02-18T13:14:24.836Z,74.75
2023-02-18T13:16:56.718Z,74.62
2023-02-18T13:19:28.875Z,76.50
2023-02-18T13:22:04.996Z,76.25
2023-02-18T13:24:50.338Z,76.42
2023-02-18T13:27:21.977Z,77.58
2023-02-18T13:29:53.525Z,76.26
2023-02-18T13:32:28.365Z,75.97
2023-02-18T13:34:59.802Z,75.62
2023-02-18T13:37:33.867Z,75.43
2023-02-18T13:40:01.853Z,74.81
2023-02-18T13:42:37.617Z,74.46
2023-02-18T13:45:35.289Z,74.72
2023-02-18T13:48:23.498Z,74.83
2023-02-18T13:51:04.000Z,75.71
2023-02-18T13:53:33.097Z,75.70
2023-02-18T13:56:06.229Z,75.79
2023-02-18T13:58:38.292Z,76.44
2023-02-18T14:01:08.317Z,76.39
2023-02-18T14:03:53.022Z,76.74
2023-02-18T14:06:23.044Z,76.76
2023-02-18T14:08:51.028Z,76.81
2023-02-18T14:11:33.755Z,77.98
2023-02-18T14:14:40.617Z,79.27
2023-02-18T14:17:32.333Z,80.69
2023-02-18T14:20:46.619Z,81.93
2023-02-18T14:23:41.350Z,81.28
2023-02-18T14:26:10.424Z,81.68
2023-02-18T14:28:41.314Z,82.92
2023-02-18T14:31:30.157Z,83.50
2023-02-18T14:34:12.657Z,83.19
2023-02-18T14:36:43.821Z,81.29
2023-02-18T14:39:27.540Z,81.66
2023-02-18T14:41:58.151Z,81.54
2023-02-18T14:44:37.948Z,81.20
2023-02-18T14:47:24.028Z,81.25
2023-02-18T14:49:53.591Z,81.00
2023-02-18T14:52:27.965Z,81.85
2023-02-18T14:54:56.901Z,81.60
2023-02-18T14:57:30.554Z,81.00
2023-02-18T14:59:59.762Z,80.55
2023-02-18T15:02:30.864Z,80.61
2023-02-18T15:05:13.993Z,81.11
2023-02-18T15:07:41.490Z,80.80
2023-02-18T15:10:16.508Z,80.16
2023-02-18T15:12:44.037Z,80.12
2023-02-18T15:15:15.498Z,79.59
2023-02-18T15:17:47.256Z,79.67
2023-02-18T15:20:15.272Z,79.10
2023-02-18T15:22:43.275Z,77.94
2023-02-18T15:25:12.776Z,77.62
2023-02-18T15:27:44.292Z,77.91
2023-02-18T15:30:20.562Z,78.70
2023-02-18T15:32:52.388Z,77.70
2023-02-18T15:35:22.783Z,77.52
2023-02-18T15:37:53.624Z,77.66
2023-02-18T15:40:22.645Z,77.84
2023-02-18T15:42:52.725Z,77.56
2023-02-18T15:45:21.188Z,77.70
2023-02-18T15:47:50.770Z,77.54
2023-02-18T15:50:21.777Z,77.86
2023-02-18T15:52:49.892Z,77.62
2023-02-18T15:55:24.128Z,77.43
2023-02-18T15:57:54.469Z,76.93
2023-02-18T16:00:27.779Z,77.08
2023-02-18T16:02:57.574Z,77.00
2023-02-18T16:05:29.744Z,76.87
2023-02-18T16:08:02.467Z,76.17
2023-02-18T16:10:43.586Z,76.91
2023-02-18T16:13:15.475Z,78.01
2023-02-18T16:15:44.845Z,77.47
2023-02-18T16:18:27.510Z,77.71
2023-02-18T16:20:58.278Z,77.80
2023-02-18T16:23:36.369Z,77.74
2023-02-18T16:26:14.571Z,77.00
2023-02-18T16:28:44.693Z,77.49
2023-02-18T16:31:12.534Z,77.39
2023-02-18T16:33:40.406Z,77.49
2023-02-18T16:36:10.995Z,77.01
2023-02-18T16:38:38.625Z,78.13
2023-02-18T16:41:06.943Z,77.32
2023-02-18T16:43:36.185Z,77.93
2023-02-18T16:46:10.402Z,77.49
2023-02-18T16:48:40.495Z,77.31
2023-02-18T16:51:11.197Z,78.21
2023-02-18T16:53:39.833Z,77.54
2023-02-18T16:56:08.055Z,78.17
2023-02-18T16:58:35.733Z,77.71
2023-02-18T17:01:03.522Z,78.08
2023-02-18T17:03:32.705Z,78.40
2023-02-18T17:06:00.201Z,78.86
2023-02-18T17:08:28.354Z,78.68
2023-02-18T17:10:57.050Z,78.96
2023-02-18T17:13:28.953Z,79.00
2023-02-18T17:15:59.037Z,78.70
2023-02-18T17:18:27.680Z,78.50
2023-02-18T17:20:58.095Z,78.42
2023-02-18T17:23:26.221Z,79.06
2023-02-18T17:25:55.176Z,78.80
2023-02-18T17:28:23.139Z,79.38
2023-02-18T17:30:56.545Z,79.73
2023-02-18T17:33:25.023Z,79.29
2023-02-18T17:35:52.595Z,78.42
2023-02-18T17:38:21.583Z,79.06
2023-02-18T17:40:50.119Z,79.56
2023-02-18T17:43:18.812Z,79.30
2023-02-18T17:45:49.937Z,79.68
2023-02-18T17:48:17.651Z,79.09
2023-02-18T17:50:45.307Z,79.16
2023-02-18T17:53:13.408Z,79.70
2023-02-18T17:55:43.670Z,79.32
2023-02-18T17:58:11.779Z,79.61
2023-02-18T18:00:41.091Z,79.63
2023-02-18T18:03:09.351Z,80.01
2023-02-18T18:05:39.620Z,79.31
2023-02-18T18:08:08.388Z,80.39
2023-02-18T18:10:38.586Z,79.98
2023-02-18T18:13:09.398Z,79.88
2023-02-18T18:15:39.662Z,80.02
2023-02-18T18:18:08.023Z,80.10
2023-02-18T18:20:38.840Z,80.24
2023-02-18T18:23:08.026Z,80.36
2023-02-18T18:25:38.909Z,80.87
2023-02-18T18:28:08.280Z,80.45
2023-02-18T18:33:48.979Z,79.79
2023-02-18T18:39:01.627Z,80.34
2023-02-18T18:41:29.359Z,80.10
2023-02-18T18:43:58.291Z,80.68
2023-02-18T18:46:26.044Z,80.23
2023-02-18T18:48:57.679Z,80.34
2023-02-18T18:51:31.971Z,80.56
2023-02-18T18:54:00.038Z,80.40
2023-02-18T18:56:27.648Z,80.83
2023-02-18T18:58:55.319Z,80.91
2023-02-18T19:01:27.121Z,80.45
2023-02-18T19:03:55.135Z,80.58
2023-02-18T19:06:22.741Z,81.14
2023-02-18T19:08:50.215Z,80.99
2023-02-18T19:11:18.998Z,81.25
2023-02-18T19:13:46.585Z,80.85
2023-02-18T19:16:18.337Z,81.27
2023-02-18T19:18:48.013Z,80.66
2023-02-18T19:21:16.727Z,80.58
2023-02-18T19:23:44.340Z,81.14
2023-02-18T19:26:12.580Z,81.08
2023-02-18T19:28:40.047Z,81.95
2023-02-18T19:31:11.719Z,81.79
2023-02-18T19:33:48.868Z,81.68
2023-02-18T19:36:18.543Z,81.47
2023-02-18T19:38:46.750Z,81.50
2023-02-18T19:41:16.762Z,81.09
2023-02-18T19:43:46.522Z,81.21
2023-02-18T19:46:16.101Z,81.14
2023-02-18T19:48:53.463Z,81.07
2023-02-18T19:51:23.193Z,81.24
2023-02-18T19:53:51.084Z,80.97
2023-02-18T19:57:21.440Z,80.57
2023-02-18T19:59:49.478Z,81.27
2023-02-18T20:02:21.219Z,81.08
2023-02-18T20:04:51.235Z,81.59
2023-02-18T20:07:22.473Z,81.46
2023-02-18T20:09:56.015Z,81.12
2023-02-18T20:12:23.958Z,81.00
2023-02-18T20:14:54.525Z,80.91
2023-02-18T20:17:22.247Z,81.33
2023-02-18T20:19:49.870Z,81.64
2023-02-18T20:22:19.584Z,81.81
2023-02-18T20:24:49.263Z,81.85
2023-02-18T20:27:17.546Z,81.66
2023-02-18T20:29:51.389Z,82.24
2023-02-18T20:32:21.573Z,81.81
2023-02-18T20:34:49.394Z,81.84
2023-02-18T20:37:17.054Z,82.29
2023-02-18T20:40:15.165Z,81.74
2023-02-18T20:47:00.638Z,82.21
2023-02-18T20:49:29.324Z,81.97
2023-02-18T20:51:57.123Z,82.25
2023-02-18T20:54:24.715Z,81.76
2023-02-18T20:56:53.724Z,82.23
2023-02-18T20:59:21.868Z,82.46
2023-02-18T21:01:49.556Z,82.49
2023-02-18T21:04:21.804Z,82.83
2023-02-18T21:06:52.312Z,82.95
2023-02-18T21:09:20.647Z,82.38
2023-02-18T21:11:53.396Z,82.31
2023-02-18T21:14:21.087Z,82.61
2023-02-18T21:16:55.180Z,81.51
2023-02-18T21:23:32.970Z,82.63
2023-02-18T21:26:04.907Z,82.54
2023-02-18T21:28:37.103Z,82.57
2023-02-18T21:31:05.330Z,82.82
2023-02-18T21:33:32.981Z,82.38
2023-02-18T21:36:02.672Z,81.62
2023-02-18T21:38:30.271Z,81.99
2023-02-18T21:40:59.799Z,81.80
2023-02-18T21:43:27.843Z,82.92
2023-02-18T21:46:09.242Z,82.49
2023-02-18T21:48:54.626Z,81.26
2023-02-18T21:51:36.262Z,81.52
2023-02-18T21:54:05.626Z,82.21
2023-02-18T21:56:33.307Z,82.99
2023-02-18T21:59:01.052Z,82.17
2023-02-18T22:01:30.555Z,81.65
2023-02-18T22:03:58.156Z,82.53
2023-02-18T22:06:25.838Z,81.73
2023-02-18T22:08:53.396Z,81.90
2023-02-18T22:11:21.022Z,81.63
2023-02-18T22:13:48.626Z,82.21
2023-02-18T22:16:16.407Z,82.90
2023-02-18T22:18:46.575Z,82.31
2023-02-18T22:21:14.121Z,82.85
2023-02-18T22:23:41.728Z,82.05
2023-02-18T22:26:10.464Z,82.91
2023-02-18T22:28:38.178Z,82.59
2023-02-18T22:31:10.192Z,82.22
2023-02-18T22:33:37.859Z,82.60
2023-02-18T22:36:08.265Z,83.05
2023-02-18T22:38:36.815Z,83.86
2023-02-18T22:41:05.162Z,83.32
2023-02-18T22:43:32.630Z,82.75
2023-02-18T22:46:03.196Z,82.32
2023-02-18T22:48:32.138Z,83.31
2023-02-18T22:51:07.358Z,83.22
2023-02-18T22:53:35.122Z,83.28
2023-02-18T22:56:03.307Z,82.60
2023-02-18T22:58:30.824Z,81.91
2023-02-18T23:00:58.744Z,82.67
2023-02-18T23:03:27.054Z,83.07
2023-02-18T23:05:55.053Z,83.17
2023-02-18T23:08:24.670Z,82.81
2023-02-18T23:11:01.017Z,82.64
2023-02-18T23:13:28.685Z,83.19
2023-02-18T23:15:59.976Z,82.76
2023-02-18T23:18:27.833Z,82.86
2023-02-18T23:21:18.687Z,83.01
2023-02-18T23:23:49.354Z,82.67
2023-02-18T23:26:17.158Z,82.08
2023-02-18T23:28:51.228Z,82.62
2023-02-18T23:31:23.462Z,82.78
2023-02-18T23:33:54.043Z,82.41
2023-02-18T23:36:23.159Z,82.55
2023-02-18T23:38:53.092Z,82.39
2023-02-18T23:41:20.684Z,82.68
2023-02-18T23:43:48.386Z,83.34
2023-02-18T23:46:20.893Z,82.28
2023-02-18T23:48:48.618Z,82.79
2023-02-18T23:51:18.012Z,82.52
2023-02-18T23:53:45.778Z,82.96
2023-02-18T23:56:17.134Z,81.78
2023-02-18T23:58:46.177Z,82.44
